sensor_id;sensor_type;location;lat;lon;timestamp;P1;durP1;ratioP1;P2;durP2;ratioP2
73642;SDS011;61938;48.652;9.292;2022-08-11T00:01:51;5.55;;;2.70;;
73642;SDS011;61938;48.652;9.292;2022-08-11T00:04:23;7.70;;;2.95;;
73642;SDS011;61938;48.652;9.292;2022-08-11T00:06:50;5.10;;;3.00;;
73642;SDS011;61938;48.652;9.292;2022-08-11T00:09:18;4.55;;;2.90;;
73642;SDS011;61938;48.652;9.292;2022-08-11T00:11:52;9.05;;;2.95;;
73642;SDS011;61938;48.652;9.292;2022-08-11T00:14:21;3.80;;;2.78;;
73642;SDS011;61938;48.652;9.292;2022-08-11T00:16:54;4.47;;;3.08;;
73642;SDS011;61938;48.652;9.292;2022-08-11T00:19:31;4.25;;;2.63;;
73642;SDS011;61938;48.652;9.292;2022-08-11T00:22:06;3.70;;;2.50;;
73642;SDS011;61938;48.652;9.292;2022-08-11T00:24:34;5.40;;;2.92;;
73642;SDS011;61938;48.652;9.292;2022-08-11T00:27:02;4.97;;;2.92;;
73642;SDS011;61938;48.652;9.292;2022-08-11T00:29:29;5.82;;;3.10;;
73642;SDS011;61938;48.652;9.292;2022-08-11T00:31:55;2.95;;;2.50;;
73642;SDS011;61938;48.652;9.292;2022-08-11T00:34:24;6.28;;;2.40;;
73642;SDS011;61938;48.652;9.292;2022-08-11T00:37:00;7.38;;;2.75;;
73642;SDS011;61938;48.652;9.292;2022-08-11T00:39:31;6.03;;;2.75;;
73642;SDS011;61938;48.652;9.292;2022-08-11T00:42:14;4.53;;;2.70;;
73642;SDS011;61938;48.652;9.292;2022-08-11T00:45:25;6.57;;;2.70;;
73642;SDS011;61938;48.652;9.292;2022-08-11T01:05:23;6.13;;;2.47;;
73642;SDS011;61938;48.652;9.292;2022-08-11T01:53:25;8.90;;;3.00;;
73642;SDS011;61938;48.652;9.292;2022-08-11T01:58:54;4.55;;;2.72;;
73642;SDS011;61938;48.652;9.292;2022-08-11T02:01:37;3.78;;;2.83;;
73642;SDS011;61938;48.652;9.292;2022-08-11T02:15:54;5.88;;;3.30;;
73642;SDS011;61938;48.652;9.292;2022-08-11T02:18:41;8.40;;;3.10;;
73642;SDS011;61938;48.652;9.292;2022-08-11T02:21:45;4.47;;;2.88;;
73642;SDS011;61938;48.652;9.292;2022-08-11T02:24:48;6.63;;;3.40;;
73642;SDS011;61938;48.652;9.292;2022-08-11T02:27:22;8.23;;;2.70;;
73642;SDS011;61938;48.652;9.292;2022-08-11T02:30:07;5.82;;;3.00;;
73642;SDS011;61938;48.652;9.292;2022-08-11T02:32:50;5.47;;;3.25;;
73642;SDS011;61938;48.652;9.292;2022-08-11T02:41:51;4.72;;;3.15;;
73642;SDS011;61938;48.652;9.292;2022-08-11T02:59:54;8.25;;;3.60;;
73642;SDS011;61938;48.652;9.292;2022-08-11T03:08:15;4.50;;;3.33;;
73642;SDS011;61938;48.652;9.292;2022-08-11T03:14:30;4.13;;;3.45;;
73642;SDS011;61938;48.652;9.292;2022-08-11T03:17:45;7.50;;;3.53;;
73642;SDS011;61938;48.652;9.292;2022-08-11T03:29:10;5.60;;;3.05;;
73642;SDS011;61938;48.652;9.292;2022-08-11T03:31:48;4.60;;;3.42;;
73642;SDS011;61938;48.652;9.292;2022-08-11T03:34:23;7.00;;;3.80;;
73642;SDS011;61938;48.652;9.292;2022-08-11T03:36:53;7.38;;;3.80;;
73642;SDS011;61938;48.652;9.292;2022-08-11T03:40:28;16.75;;;4.05;;
73642;SDS011;61938;48.652;9.292;2022-08-11T03:43:21;7.63;;;3.97;;
73642;SDS011;61938;48.652;9.292;2022-08-11T03:52:48;9.05;;;4.68;;
73642;SDS011;61938;48.652;9.292;2022-08-11T04:03:56;8.40;;;4.15;;
73642;SDS011;61938;48.652;9.292;2022-08-11T04:10:01;10.07;;;4.63;;
73642;SDS011;61938;48.652;9.292;2022-08-11T04:32:15;5.88;;;4.18;;
73642;SDS011;61938;48.652;9.292;2022-08-11T04:49:05;6.73;;;3.93;;
73642;SDS011;61938;48.652;9.292;2022-08-11T05:04:44;6.95;;;4.25;;
73642;SDS011;61938;48.652;9.292;2022-08-11T05:13:25;8.73;;;4.70;;
73642;SDS011;61938;48.652;9.292;2022-08-11T05:16:14;6.03;;;4.25;;
73642;SDS011;61938;48.652;9.292;2022-08-11T05:19:02;5.93;;;4.22;;
73642;SDS011;61938;48.652;9.292;2022-08-11T05:21:51;6.30;;;4.03;;
73642;SDS011;61938;48.652;9.292;2022-08-11T05:24:42;9.07;;;4.05;;
73642;SDS011;61938;48.652;9.292;2022-08-11T05:27:35;18.15;;;4.55;;
73642;SDS011;61938;48.652;9.292;2022-08-11T05:30:46;8.93;;;4.15;;
73642;SDS011;61938;48.652;9.292;2022-08-11T05:33:32;5.13;;;3.85;;
73642;SDS011;61938;48.652;9.292;2022-08-11T05:39:20;12.30;;;4.20;;
73642;SDS011;61938;48.652;9.292;2022-08-11T05:42:07;6.78;;;4.38;;
73642;SDS011;61938;48.652;9.292;2022-08-11T05:44:53;6.07;;;3.80;;
73642;SDS011;61938;48.652;9.292;2022-08-11T05:47:40;16.27;;;4.10;;
73642;SDS011;61938;48.652;9.292;2022-08-11T05:50:25;7.55;;;3.83;;
73642;SDS011;61938;48.652;9.292;2022-08-11T05:53:12;11.02;;;4.07;;
73642;SDS011;61938;48.652;9.292;2022-08-11T05:55:58;5.68;;;4.03;;
73642;SDS011;61938;48.652;9.292;2022-08-11T05:58:49;5.47;;;4.45;;
73642;SDS011;61938;48.652;9.292;2022-08-11T06:01:23;8.00;;;3.58;;
73642;SDS011;61938;48.652;9.292;2022-08-11T06:03:54;7.75;;;3.63;;
73642;SDS011;61938;48.652;9.292;2022-08-11T06:09:19;5.00;;;3.88;;
73642;SDS011;61938;48.652;9.292;2022-08-11T06:11:48;8.80;;;4.10;;
73642;SDS011;61938;48.652;9.292;2022-08-11T06:14:14;6.38;;;3.75;;
73642;SDS011;61938;48.652;9.292;2022-08-11T06:16:40;12.27;;;4.55;;
73642;SDS011;61938;48.652;9.292;2022-08-11T06:19:07;7.32;;;4.47;;
73642;SDS011;61938;48.652;9.292;2022-08-11T06:21:34;7.70;;;4.18;;
73642;SDS011;61938;48.652;9.292;2022-08-11T06:24:11;6.25;;;3.80;;
73642;SDS011;61938;48.652;9.292;2022-08-11T06:26:39;8.63;;;4.38;;
73642;SDS011;61938;48.652;9.292;2022-08-11T06:29:11;9.77;;;4.10;;
73642;SDS011;61938;48.652;9.292;2022-08-11T06:31:42;7.57;;;4.65;;
73642;SDS011;61938;48.652;9.292;2022-08-11T06:36:56;5.38;;;4.40;;
73642;SDS011;61938;48.652;9.292;2022-08-11T06:45:13;7.22;;;3.90;;
73642;SDS011;61938;48.652;9.292;2022-08-11T06:47:57;9.77;;;4.72;;
73642;SDS011;61938;48.652;9.292;2022-08-11T06:50:25;9.57;;;4.55;;
73642;SDS011;61938;48.652;9.292;2022-08-11T06:53:11;7.82;;;4.45;;
73642;SDS011;61938;48.652;9.292;2022-08-11T06:55:42;8.80;;;4.10;;
73642;SDS011;61938;48.652;9.292;2022-08-11T06:58:29;9.85;;;4.05;;
73642;SDS011;61938;48.652;9.292;2022-08-11T07:01:18;7.65;;;4.32;;
73642;SDS011;61938;48.652;9.292;2022-08-11T07:04:10;8.25;;;4.10;;
73642;SDS011;61938;48.652;9.292;2022-08-11T07:06:49;8.32;;;4.10;;
73642;SDS011;61938;48.652;9.292;2022-08-11T07:12:58;5.50;;;4.10;;
73642;SDS011;61938;48.652;9.292;2022-08-11T07:15:44;9.07;;;4.57;;
73642;SDS011;61938;48.652;9.292;2022-08-11T07:18:18;6.72;;;3.70;;
73642;SDS011;61938;48.652;9.292;2022-08-11T07:21:13;6.55;;;3.80;;
73642;SDS011;61938;48.652;9.292;2022-08-11T07:24:28;5.97;;;4.03;;
73642;SDS011;61938;48.652;9.292;2022-08-11T07:27:25;11.90;;;3.97;;
73642;SDS011;61938;48.652;9.292;2022-08-11T07:30:15;6.97;;;3.60;;
73642;SDS011;61938;48.652;9.292;2022-08-11T07:32:49;7.45;;;4.55;;
73642;SDS011;61938;48.652;9.292;2022-08-11T07:35:19;21.35;;;4.90;;
73642;SDS011;61938;48.652;9.292;2022-08-11T07:37:54;10.65;;;4.13;;
73642;SDS011;61938;48.652;9.292;2022-08-11T07:40:23;9.60;;;4.13;;
73642;SDS011;61938;48.652;9.292;2022-08-11T07:42:50;6.20;;;4.20;;
73642;SDS011;61938;48.652;9.292;2022-08-11T07:45:18;15.70;;;4.30;;
73642;SDS011;61938;48.652;9.292;2022-08-11T07:48:03;7.90;;;3.70;;
73642;SDS011;61938;48.652;9.292;2022-08-11T07:50:49;5.13;;;3.60;;
73642;SDS011;61938;48.652;9.292;2022-08-11T07:53:34;7.88;;;3.80;;
73642;SDS011;61938;48.652;9.292;2022-08-11T07:56:02;13.65;;;4.13;;
73642;SDS011;61938;48.652;9.292;2022-08-11T07:58:33;11.27;;;3.80;;
73642;SDS011;61938;48.652;9.292;2022-08-11T08:01:23;12.65;;;4.18;;
73642;SDS011;61938;48.652;9.292;2022-08-11T08:04:09;9.23;;;3.90;;
73642;SDS011;61938;48.652;9.292;2022-08-11T08:06:57;5.88;;;3.30;;
73642;SDS011;61938;48.652;9.292;2022-08-11T08:09:43;7.07;;;4.60;;
73642;SDS011;61938;48.652;9.292;2022-08-11T08:12:27;5.47;;;3.72;;
73642;SDS011;61938;48.652;9.292;2022-08-11T08:15:13;5.55;;;3.95;;
73642;SDS011;61938;48.652;9.292;2022-08-11T08:17:59;10.80;;;3.58;;
73642;SDS011;61938;48.652;9.292;2022-08-11T08:20:29;23.65;;;3.95;;
73642;SDS011;61938;48.652;9.292;2022-08-11T08:23:04;5.93;;;3.72;;
73642;SDS011;61938;48.652;9.292;2022-08-11T08:25:34;7.32;;;3.72;;
73642;SDS011;61938;48.652;9.292;2022-08-11T08:28:06;5.00;;;3.63;;
73642;SDS011;61938;48.652;9.292;2022-08-11T08:30:41;14.80;;;3.70;;
73642;SDS011;61938;48.652;9.292;2022-08-11T08:35:45;9.60;;;3.33;;
73642;SDS011;61938;48.652;9.292;2022-08-11T08:38:14;5.65;;;3.50;;
73642;SDS011;61938;48.652;9.292;2022-08-11T08:40:41;5.80;;;3.20;;
73642;SDS011;61938;48.652;9.292;2022-08-11T08:43:11;7.22;;;2.83;;
73642;SDS011;61938;48.652;9.292;2022-08-11T08:45:41;5.75;;;3.30;;
73642;SDS011;61938;48.652;9.292;2022-08-11T08:48:09;11.10;;;3.40;;
73642;SDS011;61938;48.652;9.292;2022-08-11T08:50:49;4.50;;;2.95;;
73642;SDS011;61938;48.652;9.292;2022-08-11T08:53:38;6.03;;;3.40;;
73642;SDS011;61938;48.652;9.292;2022-08-11T08:56:08;6.00;;;3.25;;
73642;SDS011;61938;48.652;9.292;2022-08-11T08:58:36;3.67;;;3.00;;
73642;SDS011;61938;48.652;9.292;2022-08-11T09:01:03;5.72;;;3.13;;
73642;SDS011;61938;48.652;9.292;2022-08-11T09:03:29;8.27;;;3.13;;
73642;SDS011;61938;48.652;9.292;2022-08-11T09:05:57;6.70;;;2.88;;
73642;SDS011;61938;48.652;9.292;2022-08-11T09:08:23;6.85;;;3.70;;
73642;SDS011;61938;48.652;9.292;2022-08-11T09:10:49;3.70;;;2.72;;
73642;SDS011;61938;48.652;9.292;2022-08-11T09:13:36;7.78;;;2.97;;
73642;SDS011;61938;48.652;9.292;2022-08-11T09:16:08;5.93;;;2.78;;
73642;SDS011;61938;48.652;9.292;2022-08-11T09:18:35;4.15;;;2.85;;
73642;SDS011;61938;48.652;9.292;2022-08-11T09:21:02;4.20;;;2.67;;
73642;SDS011;61938;48.652;9.292;2022-08-11T09:23:28;7.63;;;2.53;;
73642;SDS011;61938;48.652;9.292;2022-08-11T09:26:14;3.92;;;2.92;;
73642;SDS011;61938;48.652;9.292;2022-08-11T09:29:19;4.35;;;2.30;;
73642;SDS011;61938;48.652;9.292;2022-08-11T09:31:46;6.80;;;2.95;;
73642;SDS011;61938;48.652;9.292;2022-08-11T09:34:13;7.80;;;2.90;;
73642;SDS011;61938;48.652;9.292;2022-08-11T09:36:40;6.20;;;2.42;;
73642;SDS011;61938;48.652;9.292;2022-08-11T09:39:29;4.68;;;2.78;;
73642;SDS011;61938;48.652;9.292;2022-08-11T09:42:15;7.20;;;2.95;;
73642;SDS011;61938;48.652;9.292;2022-08-11T09:44:44;6.00;;;2.50;;
73642;SDS011;61938;48.652;9.292;2022-08-11T09:47:22;5.68;;;2.72;;
73642;SDS011;61938;48.652;9.292;2022-08-11T09:49:51;4.25;;;2.30;;
73642;SDS011;61938;48.652;9.292;2022-08-11T09:52:20;6.32;;;2.70;;
73642;SDS011;61938;48.652;9.292;2022-08-11T09:54:47;8.23;;;2.50;;
73642;SDS011;61938;48.652;9.292;2022-08-11T09:57:17;8.52;;;2.83;;
73642;SDS011;61938;48.652;9.292;2022-08-11T10:00:04;6.43;;;2.65;;
73642;SDS011;61938;48.652;9.292;2022-08-11T10:02:34;8.85;;;2.50;;
73642;SDS011;61938;48.652;9.292;2022-08-11T10:05:06;5.45;;;2.53;;
73642;SDS011;61938;48.652;9.292;2022-08-11T10:07:51;2.80;;;2.05;;
73642;SDS011;61938;48.652;9.292;2022-08-11T10:10:19;9.60;;;2.67;;
73642;SDS011;61938;48.652;9.292;2022-08-11T10:12:58;6.38;;;2.90;;
73642;SDS011;61938;48.652;9.292;2022-08-11T10:15:29;5.13;;;2.45;;
73642;SDS011;61938;48.652;9.292;2022-08-11T10:18:08;3.58;;;2.10;;
73642;SDS011;61938;48.652;9.292;2022-08-11T10:20:58;3.58;;;2.70;;
73642;SDS011;61938;48.652;9.292;2022-08-11T10:23:34;8.90;;;2.45;;
73642;SDS011;61938;48.652;9.292;2022-08-11T10:26:20;3.85;;;2.45;;
73642;SDS011;61938;48.652;9.292;2022-08-11T10:29:06;11.15;;;2.58;;
73642;SDS011;61938;48.652;9.292;2022-08-11T10:31:53;4.47;;;2.38;;
73642;SDS011;61938;48.652;9.292;2022-08-11T10:34:40;8.27;;;2.50;;
73642;SDS011;61938;48.652;9.292;2022-08-11T10:39:36;7.30;;;2.17;;
73642;SDS011;61938;48.652;9.292;2022-08-11T10:42:03;5.65;;;2.08;;
73642;SDS011;61938;48.652;9.292;2022-08-11T10:44:50;4.72;;;2.22;;
73642;SDS011;61938;48.652;9.292;2022-08-11T10:47:19;4.50;;;2.25;;
73642;SDS011;61938;48.652;9.292;2022-08-11T10:50:06;5.45;;;2.22;;
73642;SDS011;61938;48.652;9.292;2022-08-11T10:52:52;2.85;;;1.85;;
73642;SDS011;61938;48.652;9.292;2022-08-11T10:55:40;3.17;;;2.15;;
73642;SDS011;61938;48.652;9.292;2022-08-11T10:58:26;5.50;;;2.10;;
73642;SDS011;61938;48.652;9.292;2022-08-11T11:01:11;3.60;;;2.10;;
73642;SDS011;61938;48.652;9.292;2022-08-11T11:03:38;6.15;;;2.20;;
73642;SDS011;61938;48.652;9.292;2022-08-11T11:06:14;6.28;;;2.42;;
73642;SDS011;61938;48.652;9.292;2022-08-11T11:08:55;5.18;;;2.20;;
73642;SDS011;61938;48.652;9.292;2022-08-11T11:11:37;8.50;;;2.40;;
73642;SDS011;61938;48.652;9.292;2022-08-11T11:14:41;3.92;;;2.00;;
73642;SDS011;61938;48.652;9.292;2022-08-11T11:17:28;3.60;;;2.45;;
73642;SDS011;61938;48.652;9.292;2022-08-11T11:20:16;3.65;;;2.58;;
73642;SDS011;61938;48.652;9.292;2022-08-11T11:22:47;9.82;;;2.53;;
73642;SDS011;61938;48.652;9.292;2022-08-11T11:25:20;3.17;;;2.00;;
73642;SDS011;61938;48.652;9.292;2022-08-11T11:31:22;3.08;;;2.03;;
73642;SDS011;61938;48.652;9.292;2022-08-11T11:33:41;4.93;;;2.40;;
73642;SDS011;61938;48.652;9.292;2022-08-11T11:36:53;7.15;;;2.30;;
73642;SDS011;61938;48.652;9.292;2022-08-11T11:39:22;4.63;;;1.90;;
73642;SDS011;61938;48.652;9.292;2022-08-11T11:41:52;9.25;;;2.60;;
73642;SDS011;61938;48.652;9.292;2022-08-11T11:44:20;4.72;;;2.35;;
73642;SDS011;61938;48.652;9.292;2022-08-11T11:46:47;4.70;;;2.05;;
73642;SDS011;61938;48.652;9.292;2022-08-11T11:49:15;5.22;;;1.90;;
73642;SDS011;61938;48.652;9.292;2022-08-11T11:51:46;3.95;;;2.10;;
73642;SDS011;61938;48.652;9.292;2022-08-11T11:54:16;3.40;;;2.00;;
73642;SDS011;61938;48.652;9.292;2022-08-11T11:56:48;2.47;;;2.00;;
73642;SDS011;61938;48.652;9.292;2022-08-11T11:59:17;4.60;;;2.40;;
73642;SDS011;61938;48.652;9.292;2022-08-11T12:02:03;4.47;;;2.20;;
73642;SDS011;61938;48.652;9.292;2022-08-11T12:04:30;24.40;;;2.30;;
73642;SDS011;61938;48.652;9.292;2022-08-11T12:06:56;5.97;;;1.80;;
73642;SDS011;61938;48.652;9.292;2022-08-11T12:09:43;6.18;;;1.83;;
73642;SDS011;61938;48.652;9.292;2022-08-11T12:12:11;3.60;;;2.03;;
73642;SDS011;61938;48.652;9.292;2022-08-11T12:14:56;4.03;;;2.20;;
73642;SDS011;61938;48.652;9.292;2022-08-11T12:17:22;2.97;;;2.17;;
73642;SDS011;61938;48.652;9.292;2022-08-11T12:19:49;5.05;;;1.90;;
73642;SDS011;61938;48.652;9.292;2022-08-11T12:22:16;3.42;;;2.10;;
73642;SDS011;61938;48.652;9.292;2022-08-11T12:25:01;3.38;;;2.03;;
73642;SDS011;61938;48.652;9.292;2022-08-11T12:27:46;3.03;;;2.00;;
73642;SDS011;61938;48.652;9.292;2022-08-11T12:30:12;3.03;;;2.13;;
73642;SDS011;61938;48.652;9.292;2022-08-11T12:32:38;7.82;;;2.58;;
73642;SDS011;61938;48.652;9.292;2022-08-11T12:35:05;4.43;;;2.20;;
73642;SDS011;61938;48.652;9.292;2022-08-11T12:37:34;4.45;;;1.80;;
73642;SDS011;61938;48.652;9.292;2022-08-11T12:40:06;3.17;;;1.67;;
73642;SDS011;61938;48.652;9.292;2022-08-11T12:43:00;7.38;;;1.95;;
73642;SDS011;61938;48.652;9.292;2022-08-11T12:45:46;6.70;;;2.25;;
73642;SDS011;61938;48.652;9.292;2022-08-11T12:51:06;10.60;;;2.30;;
73642;SDS011;61938;48.652;9.292;2022-08-11T12:53:54;6.68;;;2.22;;
73642;SDS011;61938;48.652;9.292;2022-08-11T12:56:24;2.80;;;1.90;;
73642;SDS011;61938;48.652;9.292;2022-08-11T12:59:15;4.03;;;2.13;;
73642;SDS011;61938;48.652;9.292;2022-08-11T13:01:59;5.13;;;2.38;;
73642;SDS011;61938;48.652;9.292;2022-08-11T13:04:45;6.68;;;2.40;;
73642;SDS011;61938;48.652;9.292;2022-08-11T13:07:20;4.57;;;1.90;;
73642;SDS011;61938;48.652;9.292;2022-08-11T13:09:46;9.90;;;2.13;;
73642;SDS011;61938;48.652;9.292;2022-08-11T13:12:13;3.88;;;2.35;;
73642;SDS011;61938;48.652;9.292;2022-08-11T13:14:58;4.38;;;2.03;;
73642;SDS011;61938;48.652;9.292;2022-08-11T13:17:26;4.70;;;2.13;;
73642;SDS011;61938;48.652;9.292;2022-08-11T13:19:53;3.55;;;1.98;;
73642;SDS011;61938;48.652;9.292;2022-08-11T13:22:22;9.38;;;2.08;;
73642;SDS011;61938;48.652;9.292;2022-08-11T13:24:49;8.07;;;2.58;;
73642;SDS011;61938;48.652;9.292;2022-08-11T13:27:19;9.65;;;2.10;;
73642;SDS011;61938;48.652;9.292;2022-08-11T13:29:46;3.72;;;2.13;;
73642;SDS011;61938;48.652;9.292;2022-08-11T13:32:14;5.70;;;2.58;;
73642;SDS011;61938;48.652;9.292;2022-08-11T13:34:40;4.00;;;1.90;;
73642;SDS011;61938;48.652;9.292;2022-08-11T13:37:08;5.25;;;2.45;;
73642;SDS011;61938;48.652;9.292;2022-08-11T13:39:37;6.85;;;2.20;;
73642;SDS011;61938;48.652;9.292;2022-08-11T13:42:11;2.22;;;1.80;;
73642;SDS011;61938;48.652;9.292;2022-08-11T13:44:40;2.50;;;1.88;;
73642;SDS011;61938;48.652;9.292;2022-08-11T13:47:07;3.35;;;2.33;;
73642;SDS011;61938;48.652;9.292;2022-08-11T13:49:38;4.88;;;2.70;;
73642;SDS011;61938;48.652;9.292;2022-08-11T13:52:05;2.97;;;1.95;;
73642;SDS011;61938;48.652;9.292;2022-08-11T13:54:35;4.47;;;2.35;;
73642;SDS011;61938;48.652;9.292;2022-08-11T13:57:04;6.65;;;2.20;;
73642;SDS011;61938;48.652;9.292;2022-08-11T13:59:31;5.03;;;2.05;;
73642;SDS011;61938;48.652;9.292;2022-08-11T14:02:00;4.78;;;2.20;;
73642;SDS011;61938;48.652;9.292;2022-08-11T14:07:20;2.28;;;1.90;;
73642;SDS011;61938;48.652;9.292;2022-08-11T14:09:52;5.47;;;2.17;;
73642;SDS011;61938;48.652;9.292;2022-08-11T14:12:23;3.80;;;2.08;;
73642;SDS011;61938;48.652;9.292;2022-08-11T14:15:18;3.30;;;1.97;;
73642;SDS011;61938;48.652;9.292;2022-08-11T14:17:46;2.55;;;1.98;;
73642;SDS011;61938;48.652;9.292;2022-08-11T14:22:42;7.32;;;2.22;;
73642;SDS011;61938;48.652;9.292;2022-08-11T14:25:12;7.03;;;1.80;;
73642;SDS011;61938;48.652;9.292;2022-08-11T14:27:44;2.33;;;1.98;;
73642;SDS011;61938;48.652;9.292;2022-08-11T14:30:15;5.97;;;2.20;;
73642;SDS011;61938;48.652;9.292;2022-08-11T14:32:59;6.35;;;2.15;;
73642;SDS011;61938;48.652;9.292;2022-08-11T14:35:26;3.95;;;1.92;;
73642;SDS011;61938;48.652;9.292;2022-08-11T14:37:53;6.72;;;2.30;;
73642;SDS011;61938;48.652;9.292;2022-08-11T14:40:21;10.80;;;2.45;;
73642;SDS011;61938;48.652;9.292;2022-08-11T14:43:06;2.58;;;2.10;;
73642;SDS011;61938;48.652;9.292;2022-08-11T14:45:51;2.60;;;1.88;;
73642;SDS011;61938;48.652;9.292;2022-08-11T14:48:36;2.17;;;1.67;;
73642;SDS011;61938;48.652;9.292;2022-08-11T14:51:02;3.47;;;2.03;;
73642;SDS011;61938;48.652;9.292;2022-08-11T14:53:29;4.40;;;1.92;;
73642;SDS011;61938;48.652;9.292;2022-08-11T14:55:56;4.18;;;2.40;;
73642;SDS011;61938;48.652;9.292;2022-08-11T14:58:41;7.18;;;2.17;;
73642;SDS011;61938;48.652;9.292;2022-08-11T15:01:07;5.57;;;2.17;;
73642;SDS011;61938;48.652;9.292;2022-08-11T15:03:54;3.38;;;1.85;;
73642;SDS011;61938;48.652;9.292;2022-08-11T15:06:39;2.85;;;2.22;;
73642;SDS011;61938;48.652;9.292;2022-08-11T15:09:14;6.07;;;1.98;;
73642;SDS011;61938;48.652;9.292;2022-08-11T15:11:40;3.50;;;1.55;;
73642;SDS011;61938;48.652;9.292;2022-08-11T15:14:25;2.42;;;1.80;;
73642;SDS011;61938;48.652;9.292;2022-08-11T15:17:10;4.40;;;1.90;;
73642;SDS011;61938;48.652;9.292;2022-08-11T15:19:38;5.32;;;2.33;;
73642;SDS011;61938;48.652;9.292;2022-08-11T15:22:24;5.35;;;2.15;;
73642;SDS011;61938;48.652;9.292;2022-08-11T15:25:08;3.15;;;2.28;;
73642;SDS011;61938;48.652;9.292;2022-08-11T15:27:34;3.88;;;2.10;;
73642;SDS011;61938;48.652;9.292;2022-08-11T15:30:20;5.55;;;2.00;;
73642;SDS011;61938;48.652;9.292;2022-08-11T15:33:07;3.72;;;2.00;;
73642;SDS011;61938;48.652;9.292;2022-08-11T15:35:53;4.70;;;2.03;;
73642;SDS011;61938;48.652;9.292;2022-08-11T15:38:40;6.28;;;1.77;;
73642;SDS011;61938;48.652;9.292;2022-08-11T15:41:08;3.95;;;2.10;;
73642;SDS011;61938;48.652;9.292;2022-08-11T15:43:58;2.78;;;2.00;;
73642;SDS011;61938;48.652;9.292;2022-08-11T15:46:46;7.97;;;2.00;;
73642;SDS011;61938;48.652;9.292;2022-08-11T15:49:21;3.60;;;2.70;;
73642;SDS011;61938;48.652;9.292;2022-08-11T15:52:09;3.47;;;2.10;;
73642;SDS011;61938;48.652;9.292;2022-08-11T15:54:42;3.15;;;2.10;;
73642;SDS011;61938;48.652;9.292;2022-08-11T15:57:14;4.25;;;2.10;;
73642;SDS011;61938;48.652;9.292;2022-08-11T16:00:03;5.18;;;2.38;;
73642;SDS011;61938;48.652;9.292;2022-08-11T16:02:49;6.28;;;2.22;;
73642;SDS011;61938;48.652;9.292;2022-08-11T16:05:19;3.15;;;2.17;;
73642;SDS011;61938;48.652;9.292;2022-08-11T16:07:47;3.88;;;2.20;;
73642;SDS011;61938;48.652;9.292;2022-08-11T16:10:16;5.05;;;2.38;;
73642;SDS011;61938;48.652;9.292;2022-08-11T16:13:02;5.07;;;2.22;;
73642;SDS011;61938;48.652;9.292;2022-08-11T16:15:36;4.10;;;2.30;;
73642;SDS011;61938;48.652;9.292;2022-08-11T16:18:29;3.42;;;2.05;;
73642;SDS011;61938;48.652;9.292;2022-08-11T16:24:08;4.78;;;2.15;;
73642;SDS011;61938;48.652;9.292;2022-08-11T16:26:38;3.47;;;1.90;;
73642;SDS011;61938;48.652;9.292;2022-08-11T16:29:06;4.55;;;1.85;;
73642;SDS011;61938;48.652;9.292;2022-08-11T16:31:34;5.28;;;1.98;;
73642;SDS011;61938;48.652;9.292;2022-08-11T16:34:02;6.32;;;2.25;;
73642;SDS011;61938;48.652;9.292;2022-08-11T16:36:29;4.18;;;2.10;;
73642;SDS011;61938;48.652;9.292;2022-08-11T16:39:16;6.80;;;2.28;;
73642;SDS011;61938;48.652;9.292;2022-08-11T16:41:42;7.18;;;2.53;;
73642;SDS011;61938;48.652;9.292;2022-08-11T16:44:28;3.53;;;2.40;;
73642;SDS011;61938;48.652;9.292;2022-08-11T16:47:15;10.55;;;4.85;;
73642;SDS011;61938;48.652;9.292;2022-08-11T16:49:44;8.80;;;4.50;;
73642;SDS011;61938;48.652;9.292;2022-08-11T16:52:13;8.60;;;3.67;;
73642;SDS011;61938;48.652;9.292;2022-08-11T16:54:41;7.53;;;3.97;;
73642;SDS011;61938;48.652;9.292;2022-08-11T16:57:28;7.03;;;3.28;;
73642;SDS011;61938;48.652;9.292;2022-08-11T17:00:13;5.70;;;2.95;;
73642;SDS011;61938;48.652;9.292;2022-08-11T17:02:45;8.20;;;1.98;;
73642;SDS011;61938;48.652;9.292;2022-08-11T17:08:19;3.20;;;1.90;;
73642;SDS011;61938;48.652;9.292;2022-08-11T17:11:08;3.53;;;1.85;;
73642;SDS011;61938;48.652;9.292;2022-08-11T17:13:56;5.18;;;2.60;;
73642;SDS011;61938;48.652;9.292;2022-08-11T17:16:31;3.88;;;1.92;;
73642;SDS011;61938;48.652;9.292;2022-08-11T17:21:42;19.13;;;2.25;;
73642;SDS011;61938;48.652;9.292;2022-08-11T17:24:30;3.47;;;2.10;;
73642;SDS011;61938;48.652;9.292;2022-08-11T17:26:59;3.35;;;1.90;;
73642;SDS011;61938;48.652;9.292;2022-08-11T17:29:31;4.57;;;2.45;;
73642;SDS011;61938;48.652;9.292;2022-08-11T17:32:08;6.30;;;2.63;;
73642;SDS011;61938;48.652;9.292;2022-08-11T17:34:57;8.25;;;2.20;;
73642;SDS011;61938;48.652;9.292;2022-08-11T17:37:44;3.25;;;2.20;;
73642;SDS011;61938;48.652;9.292;2022-08-11T17:40:13;3.25;;;2.33;;
73642;SDS011;61938;48.652;9.292;2022-08-11T17:42:45;3.05;;;1.83;;
73642;SDS011;61938;48.652;9.292;2022-08-11T17:45:30;5.95;;;2.10;;
73642;SDS011;61938;48.652;9.292;2022-08-11T17:48:15;3.13;;;2.08;;
73642;SDS011;61938;48.652;9.292;2022-08-11T17:50:51;6.57;;;2.30;;
73642;SDS011;61938;48.652;9.292;2022-08-11T17:53:23;2.17;;;1.85;;
73642;SDS011;61938;48.652;9.292;2022-08-11T17:56:08;3.50;;;2.38;;
73642;SDS011;61938;48.652;9.292;2022-08-11T17:58:54;4.10;;;2.50;;
73642;SDS011;61938;48.652;9.292;2022-08-11T18:01:41;2.47;;;2.05;;
73642;SDS011;61938;48.652;9.292;2022-08-11T18:04:09;4.72;;;2.20;;
73642;SDS011;61938;48.652;9.292;2022-08-11T18:06:36;10.70;;;2.38;;
73642;SDS011;61938;48.652;9.292;2022-08-11T18:09:07;8.23;;;2.45;;
73642;SDS011;61938;48.652;9.292;2022-08-11T18:11:57;4.30;;;2.38;;
73642;SDS011;61938;48.652;9.292;2022-08-11T18:14:45;4.60;;;3.15;;
73642;SDS011;61938;48.652;9.292;2022-08-11T18:17:31;4.18;;;2.67;;
73642;SDS011;61938;48.652;9.292;2022-08-11T18:20:17;6.78;;;2.60;;
73642;SDS011;61938;48.652;9.292;2022-08-11T18:23:03;3.25;;;1.83;;
73642;SDS011;61938;48.652;9.292;2022-08-11T18:25:50;5.38;;;2.03;;
73642;SDS011;61938;48.652;9.292;2022-08-11T18:28:44;2.42;;;1.70;;
73642;SDS011;61938;48.652;9.292;2022-08-11T18:31:34;9.48;;;1.88;;
73642;SDS011;61938;48.652;9.292;2022-08-11T18:34:28;5.65;;;2.20;;
73642;SDS011;61938;48.652;9.292;2022-08-11T18:37:18;8.23;;;2.17;;
73642;SDS011;61938;48.652;9.292;2022-08-11T18:40:11;7.93;;;3.03;;
73642;SDS011;61938;48.652;9.292;2022-08-11T18:43:01;5.18;;;2.20;;
73642;SDS011;61938;48.652;9.292;2022-08-11T18:45:51;6.80;;;2.28;;
73642;SDS011;61938;48.652;9.292;2022-08-11T18:48:41;7.35;;;2.25;;
73642;SDS011;61938;48.652;9.292;2022-08-11T18:51:32;8.73;;;2.25;;
73642;SDS011;61938;48.652;9.292;2022-08-11T18:54:18;3.55;;;2.20;;
73642;SDS011;61938;48.652;9.292;2022-08-11T18:57:05;4.82;;;2.22;;
73642;SDS011;61938;48.652;9.292;2022-08-11T18:59:52;5.88;;;2.13;;
73642;SDS011;61938;48.652;9.292;2022-08-11T19:02:38;3.42;;;2.30;;
73642;SDS011;61938;48.652;9.292;2022-08-11T19:05:23;2.97;;;2.20;;
73642;SDS011;61938;48.652;9.292;2022-08-11T19:08:08;3.78;;;2.22;;
73642;SDS011;61938;48.652;9.292;2022-08-11T19:10:54;6.03;;;2.05;;
73642;SDS011;61938;48.652;9.292;2022-08-11T19:13:40;3.05;;;1.90;;
73642;SDS011;61938;48.652;9.292;2022-08-11T19:16:26;5.63;;;2.40;;
73642;SDS011;61938;48.652;9.292;2022-08-11T19:19:12;4.32;;;2.10;;
73642;SDS011;61938;48.652;9.292;2022-08-11T19:21:59;8.32;;;2.10;;
73642;SDS011;61938;48.652;9.292;2022-08-11T19:24:45;5.30;;;2.25;;
73642;SDS011;61938;48.652;9.292;2022-08-11T19:27:33;6.53;;;2.30;;
73642;SDS011;61938;48.652;9.292;2022-08-11T19:30:19;5.30;;;2.30;;
73642;SDS011;61938;48.652;9.292;2022-08-11T19:33:03;5.15;;;1.90;;
73642;SDS011;61938;48.652;9.292;2022-08-11T19:35:48;4.10;;;2.50;;
73642;SDS011;61938;48.652;9.292;2022-08-11T19:38:33;2.97;;;2.40;;
73642;SDS011;61938;48.652;9.292;2022-08-11T19:41:19;4.60;;;2.28;;
73642;SDS011;61938;48.652;9.292;2022-08-11T19:44:07;8.52;;;5.40;;
73642;SDS011;61938;48.652;9.292;2022-08-11T19:46:53;5.78;;;3.08;;